createdAt,value
2023-03-17T00:01:56.140Z,4.13
2023-03-17T00:04:58.153Z,4.17
2023-03-17T00:08:19.810Z,4.32
2023-03-17T00:11:21.642Z,4.45
2023-03-17T00:14:23.402Z,4.23
2023-03-17T00:17:25.153Z,4.03
2023-03-17T00:20:28.947Z,4.50
2023-03-17T00:23:31.463Z,4.25
2023-03-17T00:26:33.504Z,4.13
2023-03-17T00:29:35.096Z,4.20
2023-03-17T00:32:36.724Z,4.30
2023-03-17T00:35:38.376Z,4.13
2023-03-17T00:38:40.270Z,4.93
2023-03-17T00:41:42.417Z,4.40
2023-03-17T00:44:48.921Z,4.20
2023-03-17T00:47:51.738Z,4.50
2023-03-17T00:50:53.379Z,4.53
2023-03-17T00:53:57.080Z,4.82
2023-03-17T00:56:58.647Z,4.53
2023-03-17T01:00:04.828Z,4.25
2023-03-17T01:03:09.214Z,4.60
2023-03-17T01:06:12.213Z,4.47
2023-03-17T01:09:18.565Z,4.50
2023-03-17T01:12:20.841Z,4.30
2023-03-17T01:15:27.013Z,4.37
2023-03-17T01:18:28.679Z,4.97
2023-03-17T01:21:30.673Z,5.53
2023-03-17T01:24:33.217Z,5.60
2023-03-17T01:27:35.927Z,5.30
2023-03-17T01:30:38.594Z,5.80
2023-03-17T01:33:41.710Z,5.78
2023-03-17T01:36:43.365Z,6.17
2023-03-17T01:39:45.564Z,5.63
2023-03-17T01:42:55.134Z,6.22
2023-03-17T01:46:25.180Z,6.13
2023-03-17T01:49:37.560Z,5.68
2023-03-17T01:52:39.801Z,5.20
2023-03-17T01:55:41.731Z,5.28
2023-03-17T01:58:43.800Z,5.50
2023-03-17T02:01:47.382Z,5.50
2023-03-17T02:04:50.716Z,4.85
2023-03-17T02:07:53.639Z,4.77
2023-03-17T02:10:56.375Z,4.10
2023-03-17T02:13:58.088Z,4.07
2023-03-17T02:17:02.780Z,4.67
2023-03-17T02:20:27.451Z,4.45
2023-03-17T02:23:29.615Z,4.38
2023-03-17T02:26:32.303Z,4.38
2023-03-17T02:29:35.968Z,4.43
2023-03-17T02:32:38.007Z,4.40
2023-03-17T02:35:40.066Z,4.70
2023-03-17T02:38:42.264Z,5.00
2023-03-17T02:41:44.008Z,4.85
2023-03-17T02:44:45.735Z,4.60
2023-03-17T02:47:47.813Z,5.40
2023-03-17T02:50:49.553Z,5.40
2023-03-17T02:53:51.208Z,5.75
2023-03-17T02:56:52.913Z,4.50
2023-03-17T02:59:54.534Z,5.25
2023-03-17T03:03:00.316Z,5.55
2023-03-17T03:06:03.208Z,4.95
2023-03-17T03:09:05.696Z,5.07
2023-03-17T03:12:09.999Z,4.63
2023-03-17T03:15:11.795Z,4.65
2023-03-17T03:18:13.487Z,5.37
2023-03-17T03:21:15.533Z,4.95
2023-03-17T03:24:17.209Z,4.75
2023-03-17T03:27:18.843Z,4.25
2023-03-17T03:30:20.802Z,4.50
2023-03-17T03:33:22.653Z,4.30
2023-03-17T03:36:25.388Z,4.78
2023-03-17T03:39:27.005Z,4.27
2023-03-17T03:42:28.712Z,5.22
2023-03-17T03:45:30.343Z,3.92
2023-03-17T03:48:36.193Z,4.70
2023-03-17T03:51:37.858Z,4.90
2023-03-17T03:54:39.532Z,4.85
2023-03-17T03:57:41.273Z,4.88
2023-03-17T04:00:42.982Z,4.72
2023-03-17T04:03:47.358Z,5.10
2023-03-17T04:06:49.069Z,6.50
2023-03-17T04:09:51.005Z,5.93
2023-03-17T04:12:52.649Z,6.32
2023-03-17T04:15:54.570Z,5.65
2023-03-17T04:18:59.870Z,6.00
2023-03-17T04:22:01.649Z,6.18
2023-03-17T04:25:03.478Z,6.90
2023-03-17T04:28:05.250Z,6.55
2023-03-17T04:31:07.742Z,6.60
2023-03-17T04:34:13.604Z,6.20
2023-03-17T04:37:15.798Z,6.72
2023-03-17T04:40:18.167Z,5.70
2023-03-17T04:43:19.810Z,5.68
2023-03-17T04:46:21.411Z,6.65
2023-03-17T04:49:23.088Z,7.03
2023-03-17T04:52:24.791Z,6.25
2023-03-17T04:55:27.551Z,6.68
2023-03-17T04:58:31.064Z,6.93
2023-03-17T05:01:33.113Z,6.82
2023-03-17T05:04:34.913Z,6.35
2023-03-17T05:07:36.694Z,6.82
2023-03-17T05:10:38.397Z,6.13
2023-03-17T05:13:41.055Z,6.68
2023-03-17T05:16:42.762Z,6.53
2023-03-17T05:19:44.454Z,6.17
2023-03-17T05:22:46.606Z,6.32
2023-03-17T05:25:48.703Z,6.82
2023-03-17T05:28:50.342Z,6.35
2023-03-17T05:31:52.132Z,5.53
2023-03-17T05:34:56.627Z,5.95
2023-03-17T05:37:58.287Z,6.60
2023-03-17T05:40:59.866Z,5.90
2023-03-17T05:44:01.545Z,6.45
2023-03-17T05:47:03.299Z,6.88
2023-03-17T05:50:05.271Z,6.80
2023-03-17T05:53:06.896Z,6.55
2023-03-17T05:56:09.368Z,7.00
2023-03-17T05:59:14.903Z,7.30
2023-03-17T06:02:16.588Z,6.45
2023-03-17T06:05:18.292Z,6.28
2023-03-17T06:08:19.915Z,7.07
2023-03-17T06:11:21.809Z,5.70
2023-03-17T06:14:24.944Z,6.90
2023-03-17T06:17:28.801Z,6.20
2023-03-17T06:20:31.312Z,6.40
2023-03-17T06:23:32.927Z,6.22
2023-03-17T06:26:34.689Z,6.50
2023-03-17T06:29:36.852Z,6.25
2023-03-17T06:32:38.594Z,6.57
2023-03-17T06:35:40.658Z,5.95
2023-03-17T06:38:42.353Z,6.20
2023-03-17T06:41:44.172Z,7.27
2023-03-17T06:44:46.234Z,6.40
2023-03-17T06:47:47.988Z,6.70
2023-03-17T06:50:50.305Z,6.35
2023-03-17T06:53:51.952Z,6.90
2023-03-17T06:56:53.709Z,6.67
2023-03-17T06:59:55.471Z,7.22
2023-03-17T07:02:57.900Z,6.80
2023-03-17T07:06:00.116Z,7.47
2023-03-17T07:09:02.542Z,7.05
2023-03-17T07:12:15.194Z,7.53
2023-03-17T07:15:17.426Z,8.18
2023-03-17T07:18:19.843Z,8.02
2023-03-17T07:21:21.458Z,8.68
2023-03-17T07:24:23.675Z,7.70
2023-03-17T07:27:26.690Z,8.07
2023-03-17T07:30:28.783Z,7.68
2023-03-17T07:33:31.503Z,6.70
2023-03-17T07:36:33.897Z,6.90
2023-03-17T07:39:36.121Z,6.37
2023-03-17T07:42:40.507Z,5.40
2023-03-17T07:45:45.378Z,5.82
2023-03-17T07:48:47.147Z,5.57
2023-03-17T07:51:48.844Z,5.88
2023-03-17T07:54:52.315Z,5.80
2023-03-17T07:57:54.193Z,6.10
2023-03-17T08:00:58.054Z,5.38
2023-03-17T08:04:00.582Z,5.38
2023-03-17T08:07:02.367Z,5.20
2023-03-17T08:10:05.957Z,6.07
2023-03-17T08:13:10.821Z,5.40
2023-03-17T08:16:12.882Z,5.43
2023-03-17T08:19:14.700Z,4.78
2023-03-17T08:22:16.430Z,4.50
2023-03-17T08:25:18.158Z,4.67
2023-03-17T08:28:20.240Z,4.70
2023-03-17T08:31:22.721Z,4.30
2023-03-17T08:34:24.580Z,4.70
2023-03-17T08:37:27.067Z,4.80
2023-03-17T08:40:29.240Z,4.20
2023-03-17T08:43:31.695Z,4.40
2023-03-17T08:46:33.486Z,3.78
2023-03-17T08:49:36.665Z,4.25
2023-03-17T08:52:38.362Z,3.75
2023-03-17T08:55:40.131Z,4.07
2023-03-17T08:58:42.771Z,4.17
2023-03-17T09:01:45.582Z,3.47
2023-03-17T09:04:48.753Z,2.80
2023-03-17T09:07:50.586Z,2.90
2023-03-17T09:10:52.268Z,3.53
2023-03-17T09:13:54.615Z,3.03
2023-03-17T09:16:57.407Z,2.75
2023-03-17T09:19:59.806Z,2.80
2023-03-17T09:23:01.625Z,3.70
2023-03-17T09:26:03.820Z,2.90
2023-03-17T09:29:05.566Z,3.00
2023-03-17T09:32:08.795Z,3.40
2023-03-17T09:35:10.874Z,3.00
2023-03-17T09:38:12.931Z,3.80
2023-03-17T09:41:32.902Z,3.43
2023-03-17T09:44:57.288Z,3.37
2023-03-17T09:48:49.696Z,3.60
2023-03-17T09:51:51.630Z,3.13
2023-03-17T09:54:53.227Z,3.10
2023-03-17T09:57:56.895Z,3.37
2023-03-17T10:01:00.133Z,3.30
2023-03-17T10:04:02.838Z,3.15
2023-03-17T10:07:04.679Z,3.83
2023-03-17T10:10:27.147Z,3.22
2023-03-17T10:13:38.156Z,3.63
2023-03-17T10:16:48.430Z,3.87
2023-03-17T10:20:04.804Z,3.53
2023-03-17T10:23:07.533Z,3.17
2023-03-17T10:26:23.253Z,3.10
2023-03-17T10:29:25.481Z,2.90
2023-03-17T10:32:27.256Z,3.00
2023-03-17T10:35:29.616Z,2.95
2023-03-17T10:38:31.989Z,2.42
2023-03-17T10:41:36.231Z,3.05
2023-03-17T10:44:47.437Z,3.10
2023-03-17T10:47:50.190Z,2.93
2023-03-17T10:50:52.942Z,3.42
2023-03-17T10:53:56.041Z,3.15
2023-03-17T10:57:02.833Z,3.30
2023-03-17T11:00:06.991Z,2.80
2023-03-17T11:03:23.565Z,3.07
2023-03-17T11:06:52.564Z,3.17
2023-03-17T11:10:02.543Z,2.92
2023-03-17T11:13:06.847Z,3.00
2023-03-17T11:16:11.062Z,3.10
2023-03-17T11:19:18.991Z,2.80
2023-03-17T11:23:04.982Z,3.20
2023-03-17T11:26:35.020Z,3.22
2023-03-17T11:30:14.845Z,3.22
2023-03-17T11:33:36.567Z,3.47
2023-03-17T11:36:38.169Z,2.67
2023-03-17T11:40:07.852Z,3.30
2023-03-17T11:43:43.948Z,4.15
2023-03-17T11:47:03.978Z,3.65
2023-03-17T11:50:17.758Z,3.37
2023-03-17T11:53:25.375Z,3.70
2023-03-17T11:56:37.117Z,3.75
2023-03-17T11:59:52.176Z,3.95
2023-03-17T12:02:58.087Z,3.85
2023-03-17T12:06:05.600Z,3.40
2023-03-17T12:09:23.747Z,3.47
2023-03-17T12:12:30.638Z,3.65
2023-03-17T12:15:38.489Z,3.78
2023-03-17T12:18:43.227Z,3.95
2023-03-17T12:22:14.012Z,3.83
2023-03-17T12:25:27.262Z,3.60
2023-03-17T12:28:33.295Z,3.45
2023-03-17T12:31:36.981Z,3.85
2023-03-17T12:34:46.934Z,4.07
2023-03-17T12:37:49.036Z,3.87
2023-03-17T12:40:51.372Z,3.33
2023-03-17T12:44:11.891Z,3.50
2023-03-17T12:47:19.748Z,3.50
2023-03-17T12:50:24.493Z,3.50
2023-03-17T12:53:28.488Z,3.33
2023-03-17T12:56:31.715Z,3.00
2023-03-17T12:59:34.117Z,3.20
2023-03-17T13:02:37.572Z,3.78
2023-03-17T13:05:39.470Z,3.47
2023-03-17T13:08:42.265Z,3.30
2023-03-17T13:11:44.048Z,3.07
2023-03-17T13:14:47.722Z,2.88
2023-03-17T13:17:49.626Z,3.25
2023-03-17T13:20:57.659Z,3.20
2023-03-17T13:24:20.586Z,3.93
2023-03-17T13:27:31.498Z,3.40
2023-03-17T13:30:36.531Z,3.17
2023-03-17T13:33:49.811Z,3.30
2023-03-17T13:37:23.683Z,2.90
2023-03-17T13:40:35.790Z,3.10
2023-03-17T13:43:57.108Z,3.33
2023-03-17T13:47:23.737Z,3.20
2023-03-17T13:50:30.976Z,3.28
2023-03-17T13:53:34.901Z,3.60
2023-03-17T13:56:36.704Z,3.87
2023-03-17T13:59:54.427Z,3.57
2023-03-17T14:03:06.436Z,3.03
2023-03-17T14:06:08.625Z,3.42
2023-03-17T14:09:17.311Z,3.38
2023-03-17T14:12:27.466Z,3.53
2023-03-17T14:15:42.110Z,3.67
2023-03-17T14:18:49.785Z,3.60
2023-03-17T14:21:51.484Z,4.18
2023-03-17T14:24:59.408Z,3.78
2023-03-17T14:28:01.249Z,4.00
2023-03-17T14:31:05.011Z,3.00
2023-03-17T14:34:17.460Z,3.30
2023-03-17T14:37:19.654Z,3.33
2023-03-17T14:40:23.441Z,3.22
2023-03-17T14:43:25.490Z,3.37
2023-03-17T14:46:29.124Z,3.50
2023-03-17T14:49:32.493Z,2.90
2023-03-17T14:52:35.946Z,2.85
2023-03-17T14:55:41.101Z,3.70
2023-03-17T14:58:45.348Z,2.83
2023-03-17T15:01:48.689Z,2.63
2023-03-17T15:05:18.302Z,3.00
2023-03-17T15:08:36.372Z,3.15
2023-03-17T15:11:40.877Z,3.08
2023-03-17T15:14:42.533Z,2.87
2023-03-17T15:17:44.486Z,2.90
2023-03-17T15:20:46.331Z,2.95
2023-03-17T15:23:48.874Z,2.90
2023-03-17T15:26:59.370Z,2.75
2023-03-17T15:30:04.520Z,2.57
2023-03-17T15:33:28.526Z,2.70
2023-03-17T15:36:33.040Z,2.60
2023-03-17T15:39:34.951Z,2.45
2023-03-17T15:42:37.753Z,2.40
2023-03-17T15:45:39.379Z,2.87
2023-03-17T15:48:41.076Z,3.10
2023-03-17T15:51:42.889Z,2.75
2023-03-17T15:54:44.637Z,2.30
2023-03-17T15:57:54.880Z,2.78
2023-03-17T16:00:58.157Z,3.00
2023-03-17T16:03:59.816Z,2.40
2023-03-17T16:07:01.582Z,2.50
2023-03-17T16:10:19.708Z,2.63
2023-03-17T16:13:25.449Z,2.92
2023-03-17T16:16:31.808Z,2.70
2023-03-17T16:19:33.987Z,2.80
2023-03-17T16:22:38.302Z,2.55
2023-03-17T16:25:40.076Z,2.60
2023-03-17T16:28:41.903Z,3.00
2023-03-17T16:31:44.733Z,3.17
2023-03-17T16:34:46.457Z,2.23
2023-03-17T16:37:48.463Z,2.90
2023-03-17T16:40:59.404Z,3.08
2023-03-17T16:44:04.366Z,2.70
2023-03-17T16:47:06.295Z,2.90
2023-03-17T16:50:16.380Z,3.00
2023-03-17T16:53:18.148Z,2.58
2023-03-17T16:56:24.369Z,3.65
2023-03-17T16:59:35.588Z,3.15
2023-03-17T17:02:37.302Z,3.33
2023-03-17T17:05:40.216Z,3.05
2023-03-17T17:08:43.314Z,3.08
2023-03-17T17:11:45.277Z,3.10
2023-03-17T17:14:46.898Z,3.45
2023-03-17T17:18:02.374Z,2.80
2023-03-17T17:21:04.140Z,3.20
2023-03-17T17:24:09.869Z,2.83
2023-03-17T17:27:12.630Z,3.33
2023-03-17T17:30:20.817Z,3.40
2023-03-17T17:33:22.547Z,3.53
2023-03-17T17:36:27.368Z,3.20
2023-03-17T17:39:29.072Z,3.38
2023-03-17T17:42:30.809Z,3.92
2023-03-17T17:45:36.892Z,3.80
2023-03-17T17:48:38.535Z,3.17
2023-03-17T17:51:43.198Z,3.70
2023-03-17T17:54:48.717Z,3.40
2023-03-17T17:57:52.436Z,3.40
2023-03-17T18:01:00.746Z,3.37
2023-03-17T18:04:05.846Z,3.05
2023-03-17T18:07:07.711Z,3.10
2023-03-17T18:10:14.860Z,3.38
2023-03-17T18:13:16.970Z,3.00
2023-03-17T18:16:19.135Z,3.00
2023-03-17T18:19:24.802Z,2.80
2023-03-17T18:22:30.197Z,2.80
2023-03-17T18:25:32.995Z,3.30
2023-03-17T18:28:38.535Z,3.05
2023-03-17T18:31:48.639Z,3.33
2023-03-17T18:34:53.219Z,3.10
2023-03-17T18:37:56.645Z,4.13
2023-03-17T18:40:58.469Z,5.00
2023-03-17T18:44:00.101Z,6.00
2023-03-17T18:47:05.319Z,6.32
2023-03-17T18:50:08.344Z,7.17
2023-03-17T18:53:13.760Z,5.82
2023-03-17T18:56:21.510Z,6.70
2023-03-17T18:59:23.113Z,6.57
2023-03-17T19:02:28.397Z,6.70
2023-03-17T19:05:30.551Z,10.73
2023-03-17T19:08:36.779Z,6.68
2023-03-17T19:11:41.427Z,6.05
2023-03-17T19:14:43.055Z,6.17
2023-03-17T19:17:44.636Z,5.35
2023-03-17T19:20:50.689Z,5.10
2023-03-17T19:23:55.628Z,5.05
2023-03-17T19:26:57.306Z,4.37
2023-03-17T19:29:58.971Z,4.70
2023-03-17T19:33:03.823Z,4.80
2023-03-17T19:36:11.971Z,4.80
2023-03-17T19:39:14.035Z,6.03
2023-03-17T19:42:16.250Z,4.88
2023-03-17T19:45:18.049Z,5.90
2023-03-17T19:48:23.241Z,5.28
2023-03-17T19:51:28.235Z,5.53
2023-03-17T19:54:33.424Z,5.43
2023-03-17T19:57:35.734Z,5.20
2023-03-17T20:00:37.455Z,5.45
2023-03-17T20:03:45.352Z,5.60
2023-03-17T20:06:50.869Z,7.03
2023-03-17T20:09:54.190Z,5.82
2023-03-17T20:12:55.960Z,5.13
2023-03-17T20:15:57.621Z,5.73
2023-03-17T20:19:04.819Z,5.22
2023-03-17T20:22:10.332Z,4.95
2023-03-17T20:25:12.384Z,5.45
2023-03-17T20:28:17.835Z,5.00
2023-03-17T20:31:19.543Z,5.47
2023-03-17T20:34:21.576Z,4.88
2023-03-17T20:37:23.510Z,5.20
2023-03-17T20:40:25.611Z,4.97
2023-03-17T20:43:27.515Z,4.55
2023-03-17T20:46:29.387Z,4.32
2023-03-17T20:49:34.737Z,5.03
2023-03-17T20:52:37.214Z,5.07
2023-03-17T20:55:43.075Z,4.78
2023-03-17T20:58:50.618Z,4.53
2023-03-17T21:01:52.390Z,4.43
2023-03-17T21:04:57.816Z,4.87
2023-03-17T21:07:59.415Z,3.85
2023-03-17T21:11:07.042Z,4.72
2023-03-17T21:14:09.156Z,4.50
2023-03-17T21:17:11.109Z,4.53
2023-03-17T21:20:16.358Z,4.40
2023-03-17T21:23:21.881Z,4.45
2023-03-17T21:26:24.801Z,5.05
2023-03-17T21:29:27.523Z,4.73
2023-03-17T21:32:29.138Z,5.03
2023-03-17T21:35:34.561Z,4.75
2023-03-17T21:38:39.540Z,4.95
2023-03-17T21:41:45.056Z,4.73
2023-03-17T21:44:51.462Z,4.30
2023-03-17T21:47:53.227Z,4.53
2023-03-17T21:50:59.745Z,4.38
2023-03-17T21:54:02.125Z,4.73
2023-03-17T21:57:04.282Z,4.85
2023-03-17T22:00:08.090Z,4.43
2023-03-17T22:03:09.796Z,4.75
2023-03-17T22:06:15.652Z,4.13
2023-03-17T22:09:19.217Z,4.32
2023-03-17T22:12:24.867Z,4.00
2023-03-17T22:15:31.180Z,3.90
2023-03-17T22:18:35.747Z,4.55
2023-03-17T22:21:40.527Z,4.13
2023-03-17T22:24:46.916Z,4.50
2023-03-17T22:27:48.503Z,4.87
2023-03-17T22:30:50.695Z,5.38
2023-03-17T22:33:55.065Z,5.43
2023-03-17T22:37:00.938Z,5.55
2023-03-17T22:40:06.089Z,6.07
2023-03-17T22:43:08.019Z,5.88
2023-03-17T22:46:10.926Z,6.25
2023-03-17T22:49:12.953Z,6.95
2023-03-17T22:52:17.648Z,6.83
2023-03-17T22:55:23.208Z,6.43
2023-03-17T22:58:25.004Z,6.50
2023-03-17T23:01:27.427Z,6.20
2023-03-17T23:04:29.054Z,6.00
2023-03-17T23:07:49.677Z,5.70
2023-03-17T23:10:52.017Z,5.88
2023-03-17T23:13:53.894Z,6.20
2023-03-17T23:16:55.587Z,5.80
2023-03-17T23:19:57.482Z,6.05
2023-03-17T23:23:02.893Z,6.10
2023-03-17T23:26:10.230Z,6.37
2023-03-17T23:29:12.716Z,6.65
2023-03-17T23:32:14.611Z,6.10
2023-03-17T23:35:16.336Z,7.18
2023-03-17T23:38:19.610Z,7.13
2023-03-17T23:41:25.156Z,7.95
2023-03-17T23:44:30.678Z,7.40
2023-03-17T23:47:32.294Z,8.00
2023-03-17T23:50:38.124Z,8.23
2023-03-17T23:53:42.717Z,8.27
2023-03-17T23:56:49.162Z,8.50
2023-03-17T23:59:53.780Z,8.07
